sensor_id;sensor_type;location;lat;lon;timestamp;temperature;humidity
22469;DHT22;11401;50.792;4.352;2023-04-24T00:01:34;17.50;57.00
22469;DHT22;11401;50.792;4.352;2023-04-24T00:04:03;17.30;58.10
22469;DHT22;11401;50.792;4.352;2023-04-24T00:06:30;17.30;58.30
22469;DHT22;11401;50.792;4.352;2023-04-24T00:09:00;17.20;58.00
22469;DHT22;11401;50.792;4.352;2023-04-24T00:11:28;17.40;59.10
22469;DHT22;11401;50.792;4.352;2023-04-24T00:13:56;17.40;58.60
22469;DHT22;11401;50.792;4.352;2023-04-24T00:16:23;17.50;59.20
22469;DHT22;11401;50.792;4.352;2023-04-24T00:18:50;17.50;57.90
22469;DHT22;11401;50.792;4.352;2023-04-24T00:21:19;17.40;58.00
22469;DHT22;11401;50.792;4.352;2023-04-24T00:23:47;17.40;57.70
22469;DHT22;11401;50.792;4.352;2023-04-24T00:26:14;17.30;57.70
22469;DHT22;11401;50.792;4.352;2023-04-24T00:28:41;17.20;57.90
22469;DHT22;11401;50.792;4.352;2023-04-24T00:31:08;17.10;58.30
22469;DHT22;11401;50.792;4.352;2023-04-24T00:33:35;17.20;59.20
22469;DHT22;11401;50.792;4.352;2023-04-24T00:36:03;17.20;58.30
22469;DHT22;11401;50.792;4.352;2023-04-24T00:38:30;17.20;57.70
22469;DHT22;11401;50.792;4.352;2023-04-24T00:40:57;17.10;58.70
22469;DHT22;11401;50.792;4.352;2023-04-24T00:43:23;17.20;59.40
22469;DHT22;11401;50.792;4.352;2023-04-24T00:45:51;17.10;57.70
22469;DHT22;11401;50.792;4.352;2023-04-24T00:48:18;17.20;59.30
22469;DHT22;11401;50.792;4.352;2023-04-24T00:50:47;17.10;58.70
22469;DHT22;11401;50.792;4.352;2023-04-24T00:53:14;17.20;58.80
22469;DHT22;11401;50.792;4.352;2023-04-24T00:55:41;17.10;58.50
22469;DHT22;11401;50.792;4.352;2023-04-24T00:58:08;17.20;59.60
22469;DHT22;11401;50.792;4.352;2023-04-24T01:00:35;17.20;58.50
22469;DHT22;11401;50.792;4.352;2023-04-24T01:03:04;17.10;58.40
22469;DHT22;11401;50.792;4.352;2023-04-24T01:05:33;17.10;58.90
22469;DHT22;11401;50.792;4.352;2023-04-24T01:08:01;17.10;59.40
22469;DHT22;11401;50.792;4.352;2023-04-24T01:10:29;17.20;58.50
22469;DHT22;11401;50.792;4.352;2023-04-24T01:12:58;17.20;59.10
22469;DHT22;11401;50.792;4.352;2023-04-24T01:15:26;17.20;58.70
22469;DHT22;11401;50.792;4.352;2023-04-24T01:17:53;17.10;59.40
22469;DHT22;11401;50.792;4.352;2023-04-24T01:20:20;17.10;59.10
22469;DHT22;11401;50.792;4.352;2023-04-24T01:22:48;17.10;59.60
22469;DHT22;11401;50.792;4.352;2023-04-24T01:25:15;17.20;59.50
22469;DHT22;11401;50.792;4.352;2023-04-24T01:27:42;17.10;59.10
22469;DHT22;11401;50.792;4.352;2023-04-24T01:30:11;17.10;59.50
22469;DHT22;11401;50.792;4.352;2023-04-24T01:32:39;17.10;58.80
22469;DHT22;11401;50.792;4.352;2023-04-24T01:35:07;17.10;59.00
22469;DHT22;11401;50.792;4.352;2023-04-24T01:37:34;17.10;59.50
22469;DHT22;11401;50.792;4.352;2023-04-24T01:40:05;17.10;59.10
22469;DHT22;11401;50.792;4.352;2023-04-24T01:42:34;17.10;60.00
22469;DHT22;11401;50.792;4.352;2023-04-24T01:45:03;17.10;59.10
22469;DHT22;11401;50.792;4.352;2023-04-24T01:47:31;17.10;60.20
22469;DHT22;11401;50.792;4.352;2023-04-24T01:49:58;17.10;59.10
22469;DHT22;11401;50.792;4.352;2023-04-24T01:52:25;17.00;59.00
22469;DHT22;11401;50.792;4.352;2023-04-24T01:54:53;16.90;59.30
22469;DHT22;11401;50.792;4.352;2023-04-24T01:57:23;16.90;60.00
22469;DHT22;11401;50.792;4.352;2023-04-24T01:59:50;16.90;59.10
22469;DHT22;11401;50.792;4.352;2023-04-24T02:02:18;16.90;59.60
22469;DHT22;11401;50.792;4.352;2023-04-24T02:04:45;16.70;59.20
22469;DHT22;11401;50.792;4.352;2023-04-24T02:07:12;16.70;60.40
22469;DHT22;11401;50.792;4.352;2023-04-24T02:09:39;16.70;60.30
22469;DHT22;11401;50.792;4.352;2023-04-24T02:12:06;16.80;61.50
22469;DHT22;11401;50.792;4.352;2023-04-24T02:14:33;16.90;60.50
22469;DHT22;11401;50.792;4.352;2023-04-24T02:17:00;16.80;59.20
22469;DHT22;11401;50.792;4.352;2023-04-24T02:19:28;16.80;60.90
22469;DHT22;11401;50.792;4.352;2023-04-24T02:21:55;16.90;60.90
22469;DHT22;11401;50.792;4.352;2023-04-24T02:24:22;17.00;60.00
22469;DHT22;11401;50.792;4.352;2023-04-24T02:26:49;17.00;60.00
22469;DHT22;11401;50.792;4.352;2023-04-24T02:29:15;17.10;60.50
22469;DHT22;11401;50.792;4.352;2023-04-24T02:31:42;17.20;59.80
22469;DHT22;11401;50.792;4.352;2023-04-24T02:34:10;17.10;59.10
22469;DHT22;11401;50.792;4.352;2023-04-24T02:36:38;17.10;61.20
22469;DHT22;11401;50.792;4.352;2023-04-24T02:39:05;17.10;59.80
22469;DHT22;11401;50.792;4.352;2023-04-24T02:41:32;17.10;59.90
22469;DHT22;11401;50.792;4.352;2023-04-24T02:43:59;17.10;59.00
22469;DHT22;11401;50.792;4.352;2023-04-24T02:46:26;17.00;60.00
22469;DHT22;11401;50.792;4.352;2023-04-24T02:48:53;17.10;60.30
22469;DHT22;11401;50.792;4.352;2023-04-24T02:51:20;17.10;59.70
22469;DHT22;11401;50.792;4.352;2023-04-24T02:53:47;17.00;59.70
22469;DHT22;11401;50.792;4.352;2023-04-24T02:56:14;17.10;60.60
22469;DHT22;11401;50.792;4.352;2023-04-24T02:58:41;16.90;58.90
22469;DHT22;11401;50.792;4.352;2023-04-24T03:01:09;16.70;59.90
22469;DHT22;11401;50.792;4.352;2023-04-24T03:03:38;16.70;60.20
22469;DHT22;11401;50.792;4.352;2023-04-24T03:06:06;16.70;59.80
22469;DHT22;11401;50.792;4.352;2023-04-24T03:08:35;16.80;60.10
22469;DHT22;11401;50.792;4.352;2023-04-24T03:11:02;16.90;60.30
22469;DHT22;11401;50.792;4.352;2023-04-24T03:13:31;16.70;59.60
22469;DHT22;11401;50.792;4.352;2023-04-24T03:15:57;16.80;60.80
22469;DHT22;11401;50.792;4.352;2023-04-24T03:18:27;16.90;60.20
22469;DHT22;11401;50.792;4.352;2023-04-24T03:20:54;16.90;61.20
22469;DHT22;11401;50.792;4.352;2023-04-24T03:23:21;16.90;59.40
22469;DHT22;11401;50.792;4.352;2023-04-24T03:25:48;17.00;61.20
22469;DHT22;11401;50.792;4.352;2023-04-24T03:28:18;17.00;59.90
22469;DHT22;11401;50.792;4.352;2023-04-24T03:30:57;16.90;59.80
22469;DHT22;11401;50.792;4.352;2023-04-24T03:33:30;16.80;60.30
22469;DHT22;11401;50.792;4.352;2023-04-24T03:36:01;16.70;60.20
22469;DHT22;11401;50.792;4.352;2023-04-24T03:38:35;16.80;60.60
22469;DHT22;11401;50.792;4.352;2023-04-24T03:41:18;16.70;60.50
22469;DHT22;11401;50.792;4.352;2023-04-24T03:43:49;16.60;60.60
22469;DHT22;11401;50.792;4.352;2023-04-24T03:46:16;16.80;61.00
22469;DHT22;11401;50.792;4.352;2023-04-24T03:48:50;16.70;60.40
22469;DHT22;11401;50.792;4.352;2023-04-24T03:51:20;16.80;61.60
22469;DHT22;11401;50.792;4.352;2023-04-24T03:53:50;16.70;59.80
22469;DHT22;11401;50.792;4.352;2023-04-24T03:56:19;16.70;60.50
22469;DHT22;11401;50.792;4.352;2023-04-24T03:58:47;16.70;61.30
22469;DHT22;11401;50.792;4.352;2023-04-24T04:01:14;16.70;60.80
22469;DHT22;11401;50.792;4.352;2023-04-24T04:03:50;16.70;61.60
22469;DHT22;11401;50.792;4.352;2023-04-24T04:06:21;16.70;61.10
22469;DHT22;11401;50.792;4.352;2023-04-24T04:08:51;16.60;61.30
22469;DHT22;11401;50.792;4.352;2023-04-24T04:11:18;16.60;60.70
22469;DHT22;11401;50.792;4.352;2023-04-24T04:13:45;16.60;61.80
22469;DHT22;11401;50.792;4.352;2023-04-24T04:16:17;16.60;61.80
22469;DHT22;11401;50.792;4.352;2023-04-24T04:18:46;16.60;61.80
22469;DHT22;11401;50.792;4.352;2023-04-24T04:21:13;16.60;61.80
22469;DHT22;11401;50.792;4.352;2023-04-24T04:23:40;16.60;61.40
22469;DHT22;11401;50.792;4.352;2023-04-24T04:26:18;16.60;61.30
22469;DHT22;11401;50.792;4.352;2023-04-24T04:29:00;16.60;61.70
22469;DHT22;11401;50.792;4.352;2023-04-24T04:31:29;16.60;61.10
22469;DHT22;11401;50.792;4.352;2023-04-24T04:34:00;16.50;61.40
22469;DHT22;11401;50.792;4.352;2023-04-24T04:36:30;16.60;61.80
22469;DHT22;11401;50.792;4.352;2023-04-24T04:39:06;16.70;61.70
22469;DHT22;11401;50.792;4.352;2023-04-24T04:41:54;16.60;61.60
22469;DHT22;11401;50.792;4.352;2023-04-24T04:44:25;16.60;61.20
22469;DHT22;11401;50.792;4.352;2023-04-24T04:46:57;16.40;61.70
22469;DHT22;11401;50.792;4.352;2023-04-24T04:49:26;16.30;62.60
22469;DHT22;11401;50.792;4.352;2023-04-24T04:51:55;16.30;61.50
22469;DHT22;11401;50.792;4.352;2023-04-24T04:54:25;16.20;62.00
22469;DHT22;11401;50.792;4.352;2023-04-24T04:56:53;16.00;62.00
22469;DHT22;11401;50.792;4.352;2023-04-24T04:59:20;16.00;62.60
22469;DHT22;11401;50.792;4.352;2023-04-24T05:01:51;16.00;63.10
22469;DHT22;11401;50.792;4.352;2023-04-24T05:04:18;16.00;62.70
22469;DHT22;11401;50.792;4.352;2023-04-24T05:06:46;16.00;63.30
22469;DHT22;11401;50.792;4.352;2023-04-24T05:09:14;15.70;60.80
22469;DHT22;11401;50.792;4.352;2023-04-24T05:11:52;14.80;66.30
22469;DHT22;11401;50.792;4.352;2023-04-24T05:14:20;14.80;67.60
22469;DHT22;11401;50.792;4.352;2023-04-24T05:16:48;14.80;67.10
22469;DHT22;11401;50.792;4.352;2023-04-24T05:19:18;15.00;66.30
22469;DHT22;11401;50.792;4.352;2023-04-24T05:21:45;15.10;66.00
22469;DHT22;11401;50.792;4.352;2023-04-24T05:24:13;15.20;67.10
22469;DHT22;11401;50.792;4.352;2023-04-24T05:26:58;15.40;65.70
22469;DHT22;11401;50.792;4.352;2023-04-24T05:29:32;15.60;64.90
22469;DHT22;11401;50.792;4.352;2023-04-24T05:32:00;15.70;64.40
22469;DHT22;11401;50.792;4.352;2023-04-24T05:34:29;15.80;64.20
22469;DHT22;11401;50.792;4.352;2023-04-24T05:36:57;15.80;63.10
22469;DHT22;11401;50.792;4.352;2023-04-24T05:39:25;15.80;63.80
22469;DHT22;11401;50.792;4.352;2023-04-24T05:41:53;15.70;62.40
22469;DHT22;11401;50.792;4.352;2023-04-24T05:44:20;15.70;63.70
22469;DHT22;11401;50.792;4.352;2023-04-24T05:46:47;15.70;63.90
22469;DHT22;11401;50.792;4.352;2023-04-24T05:49:16;15.90;62.60
22469;DHT22;11401;50.792;4.352;2023-04-24T05:51:44;16.00;63.00
22469;DHT22;11401;50.792;4.352;2023-04-24T05:54:12;16.00;63.00
22469;DHT22;11401;50.792;4.352;2023-04-24T05:56:40;16.00;62.30
22469;DHT22;11401;50.792;4.352;2023-04-24T05:59:12;16.00;62.40
22469;DHT22;11401;50.792;4.352;2023-04-24T06:01:39;16.10;62.80
22469;DHT22;11401;50.792;4.352;2023-04-24T06:04:15;16.10;62.60
22469;DHT22;11401;50.792;4.352;2023-04-24T06:06:42;16.20;62.40
22469;DHT22;11401;50.792;4.352;2023-04-24T06:09:09;16.20;62.40
22469;DHT22;11401;50.792;4.352;2023-04-24T06:11:36;16.20;62.00
22469;DHT22;11401;50.792;4.352;2023-04-24T06:14:04;16.10;62.40
22469;DHT22;11401;50.792;4.352;2023-04-24T06:16:37;16.10;62.80
22469;DHT22;11401;50.792;4.352;2023-04-24T06:19:16;16.10;61.50
22469;DHT22;11401;50.792;4.352;2023-04-24T06:21:43;16.10;62.80
22469;DHT22;11401;50.792;4.352;2023-04-24T06:24:10;16.30;61.80
22469;DHT22;11401;50.792;4.352;2023-04-24T06:26:37;16.30;61.30
22469;DHT22;11401;50.792;4.352;2023-04-24T06:29:06;16.10;61.80
22469;DHT22;11401;50.792;4.352;2023-04-24T06:31:35;16.10;62.30
22469;DHT22;11401;50.792;4.352;2023-04-24T06:34:04;16.10;61.80
22469;DHT22;11401;50.792;4.352;2023-04-24T06:36:31;16.10;62.60
22469;DHT22;11401;50.792;4.352;2023-04-24T06:39:01;16.10;61.60
22469;DHT22;11401;50.792;4.352;2023-04-24T06:41:29;16.00;61.90
22469;DHT22;11401;50.792;4.352;2023-04-24T06:43:56;16.10;63.20
22469;DHT22;11401;50.792;4.352;2023-04-24T06:46:23;16.20;62.50
22469;DHT22;11401;50.792;4.352;2023-04-24T06:48:53;16.20;62.30
22469;DHT22;11401;50.792;4.352;2023-04-24T06:51:23;16.20;62.20
22469;DHT22;11401;50.792;4.352;2023-04-24T06:53:53;16.20;62.60
22469;DHT22;11401;50.792;4.352;2023-04-24T06:56:21;16.20;62.20
22469;DHT22;11401;50.792;4.352;2023-04-24T06:58:49;16.30;62.60
22469;DHT22;11401;50.792;4.352;2023-04-24T07:01:16;16.20;61.30
22469;DHT22;11401;50.792;4.352;2023-04-24T07:03:43;16.30;62.70
22469;DHT22;11401;50.792;4.352;2023-04-24T07:06:10;16.40;62.30
22469;DHT22;11401;50.792;4.352;2023-04-24T07:08:41;16.40;62.00
22469;DHT22;11401;50.792;4.352;2023-04-24T07:11:08;16.50;61.90
22469;DHT22;11401;50.792;4.352;2023-04-24T07:13:35;16.50;61.50
22469;DHT22;11401;50.792;4.352;2023-04-24T07:16:02;16.50;61.70
22469;DHT22;11401;50.792;4.352;2023-04-24T07:18:30;16.40;61.20
22469;DHT22;11401;50.792;4.352;2023-04-24T07:20:57;16.30;62.10
22469;DHT22;11401;50.792;4.352;2023-04-24T07:23:24;16.30;61.80
22469;DHT22;11401;50.792;4.352;2023-04-24T07:25:51;16.40;62.60
22469;DHT22;11401;50.792;4.352;2023-04-24T07:28:18;16.30;61.90
22469;DHT22;11401;50.792;4.352;2023-04-24T07:30:45;16.20;62.10
22469;DHT22;11401;50.792;4.352;2023-04-24T07:33:12;16.20;62.80
22469;DHT22;11401;50.792;4.352;2023-04-24T07:35:40;16.10;62.40
22469;DHT22;11401;50.792;4.352;2023-04-24T07:38:07;16.10;63.50
22469;DHT22;11401;50.792;4.352;2023-04-24T07:40:34;16.20;63.00
22469;DHT22;11401;50.792;4.352;2023-04-24T07:43:01;16.30;63.20
22469;DHT22;11401;50.792;4.352;2023-04-24T07:45:28;16.20;61.90
22469;DHT22;11401;50.792;4.352;2023-04-24T07:47:56;16.20;63.10
22469;DHT22;11401;50.792;4.352;2023-04-24T07:50:23;16.10;62.40
22469;DHT22;11401;50.792;4.352;2023-04-24T07:52:50;16.00;62.40
22469;DHT22;11401;50.792;4.352;2023-04-24T07:55:17;16.10;63.00
22469;DHT22;11401;50.792;4.352;2023-04-24T07:57:47;16.10;63.10
22469;DHT22;11401;50.792;4.352;2023-04-24T08:00:14;16.20;61.90
22469;DHT22;11401;50.792;4.352;2023-04-24T08:02:41;16.20;62.50
22469;DHT22;11401;50.792;4.352;2023-04-24T08:05:09;16.20;62.60
22469;DHT22;11401;50.792;4.352;2023-04-24T08:07:37;16.30;62.50
22469;DHT22;11401;50.792;4.352;2023-04-24T08:10:05;16.40;63.00
22469;DHT22;11401;50.792;4.352;2023-04-24T08:12:32;16.50;62.00
22469;DHT22;11401;50.792;4.352;2023-04-24T08:14:59;16.40;60.60
22469;DHT22;11401;50.792;4.352;2023-04-24T08:17:26;16.40;61.70
22469;DHT22;11401;50.792;4.352;2023-04-24T08:19:53;16.50;61.70
22469;DHT22;11401;50.792;4.352;2023-04-24T08:22:28;16.50;62.00
22469;DHT22;11401;50.792;4.352;2023-04-24T08:24:55;16.60;61.30
22469;DHT22;11401;50.792;4.352;2023-04-24T08:27:23;16.70;61.80
22469;DHT22;11401;50.792;4.352;2023-04-24T08:29:52;16.60;60.70
22469;DHT22;11401;50.792;4.352;2023-04-24T08:32:19;16.60;61.10
22469;DHT22;11401;50.792;4.352;2023-04-24T08:34:46;16.50;60.70
22469;DHT22;11401;50.792;4.352;2023-04-24T08:37:15;16.40;60.00
22469;DHT22;11401;50.792;4.352;2023-04-24T08:39:42;16.30;59.70
22469;DHT22;11401;50.792;4.352;2023-04-24T08:42:11;16.30;60.90
22469;DHT22;11401;50.792;4.352;2023-04-24T08:44:39;16.30;61.80
22469;DHT22;11401;50.792;4.352;2023-04-24T08:47:08;16.40;60.40
22469;DHT22;11401;50.792;4.352;2023-04-24T08:49:36;16.50;61.70
22469;DHT22;11401;50.792;4.352;2023-04-24T08:52:07;16.70;61.60
22469;DHT22;11401;50.792;4.352;2023-04-24T08:54:35;16.80;61.80
22469;DHT22;11401;50.792;4.352;2023-04-24T08:57:03;16.90;60.80
22469;DHT22;11401;50.792;4.352;2023-04-24T08:59:31;16.90;60.60
22469;DHT22;11401;50.792;4.352;2023-04-24T09:02:00;16.90;59.70
22469;DHT22;11401;50.792;4.352;2023-04-24T09:04:29;16.90;60.70
22469;DHT22;11401;50.792;4.352;2023-04-24T09:06:58;17.10;61.50
22469;DHT22;11401;50.792;4.352;2023-04-24T09:09:25;17.10;60.30
22469;DHT22;11401;50.792;4.352;2023-04-24T09:11:53;17.20;60.10
22469;DHT22;11401;50.792;4.352;2023-04-24T09:14:24;17.30;60.10
22469;DHT22;11401;50.792;4.352;2023-04-24T09:16:52;17.40;59.40
22469;DHT22;11401;50.792;4.352;2023-04-24T09:19:19;17.40;59.10
22469;DHT22;11401;50.792;4.352;2023-04-24T09:21:48;17.30;58.10
22469;DHT22;11401;50.792;4.352;2023-04-24T09:24:18;17.30;58.30
22469;DHT22;11401;50.792;4.352;2023-04-24T09:26:47;17.20;57.30
22469;DHT22;11401;50.792;4.352;2023-04-24T09:29:15;17.20;58.10
22469;DHT22;11401;50.792;4.352;2023-04-24T09:31:44;17.20;57.40
22469;DHT22;11401;50.792;4.352;2023-04-24T09:34:12;17.30;58.50
22469;DHT22;11401;50.792;4.352;2023-04-24T09:36:42;17.40;58.40
22469;DHT22;11401;50.792;4.352;2023-04-24T09:39:11;17.50;59.30
22469;DHT22;11401;50.792;4.352;2023-04-24T09:44:17;17.40;58.20
22469;DHT22;11401;50.792;4.352;2023-04-24T09:46:46;17.60;59.40
22469;DHT22;11401;50.792;4.352;2023-04-24T09:49:21;17.70;58.80
22469;DHT22;11401;50.792;4.352;2023-04-24T09:51:49;17.70;58.40
22469;DHT22;11401;50.792;4.352;2023-04-24T09:54:20;17.80;58.10
22469;DHT22;11401;50.792;4.352;2023-04-24T09:56:50;17.70;57.00
22469;DHT22;11401;50.792;4.352;2023-04-24T09:59:19;17.70;57.30
22469;DHT22;11401;50.792;4.352;2023-04-24T10:01:46;17.50;55.40
22469;DHT22;11401;50.792;4.352;2023-04-24T10:04:20;17.40;55.40
22469;DHT22;11401;50.792;4.352;2023-04-24T10:06:49;17.30;56.20
22469;DHT22;11401;50.792;4.352;2023-04-24T10:09:21;17.20;55.90
22469;DHT22;11401;50.792;4.352;2023-04-24T10:11:50;17.20;56.70
22469;DHT22;11401;50.792;4.352;2023-04-24T10:14:22;17.10;56.70
22469;DHT22;11401;50.792;4.352;2023-04-24T10:16:52;17.10;56.20
22469;DHT22;11401;50.792;4.352;2023-04-24T10:19:20;17.30;56.50
22469;DHT22;11401;50.792;4.352;2023-04-24T10:21:47;17.20;55.20
22469;DHT22;11401;50.792;4.352;2023-04-24T10:24:17;17.30;58.00
22469;DHT22;11401;50.792;4.352;2023-04-24T10:26:45;17.40;57.20
22469;DHT22;11401;50.792;4.352;2023-04-24T10:29:13;17.40;56.90
22469;DHT22;11401;50.792;4.352;2023-04-24T10:31:44;17.60;57.10
22469;DHT22;11401;50.792;4.352;2023-04-24T10:34:16;17.50;54.40
22469;DHT22;11401;50.792;4.352;2023-04-24T10:37:02;17.40;55.00
22469;DHT22;11401;50.792;4.352;2023-04-24T10:39:30;17.30;55.80
22469;DHT22;11401;50.792;4.352;2023-04-24T10:42:00;17.40;56.60
22469;DHT22;11401;50.792;4.352;2023-04-24T10:44:36;17.40;55.80
22469;DHT22;11401;50.792;4.352;2023-04-24T10:47:03;17.10;54.60
22469;DHT22;11401;50.792;4.352;2023-04-24T10:49:31;17.20;56.20
22469;DHT22;11401;50.792;4.352;2023-04-24T10:52:04;17.10;55.40
22469;DHT22;11401;50.792;4.352;2023-04-24T10:59:47;17.10;56.00
22469;DHT22;11401;50.792;4.352;2023-04-24T11:02:15;17.30;57.60
22469;DHT22;11401;50.792;4.352;2023-04-24T11:04:43;17.40;56.10
22469;DHT22;11401;50.792;4.352;2023-04-24T11:07:12;17.40;56.30
22469;DHT22;11401;50.792;4.352;2023-04-24T11:09:42;17.30;54.70
22469;DHT22;11401;50.792;4.352;2023-04-24T11:12:11;17.10;55.90
22469;DHT22;11401;50.792;4.352;2023-04-24T11:17:36;17.10;55.30
22469;DHT22;11401;50.792;4.352;2023-04-24T11:20:16;17.10;56.00
22469;DHT22;11401;50.792;4.352;2023-04-24T11:22:54;17.20;55.10
22469;DHT22;11401;50.792;4.352;2023-04-24T11:25:22;17.20;55.90
22469;DHT22;11401;50.792;4.352;2023-04-24T11:27:49;17.40;57.40
22469;DHT22;11401;50.792;4.352;2023-04-24T11:30:18;17.50;55.70
22469;DHT22;11401;50.792;4.352;2023-04-24T11:32:51;17.50;55.60
22469;DHT22;11401;50.792;4.352;2023-04-24T11:35:20;17.40;55.50
22469;DHT22;11401;50.792;4.352;2023-04-24T11:37:49;17.40;54.90
22469;DHT22;11401;50.792;4.352;2023-04-24T11:40:21;17.50;57.10
22469;DHT22;11401;50.792;4.352;2023-04-24T11:42:50;17.50;54.80
22469;DHT22;11401;50.792;4.352;2023-04-24T11:45:25;17.50;55.20
22469;DHT22;11401;50.792;4.352;2023-04-24T11:47:53;17.40;55.40
22469;DHT22;11401;50.792;4.352;2023-04-24T11:50:23;17.50;56.60
22469;DHT22;11401;50.792;4.352;2023-04-24T11:52:50;17.60;55.80
22469;DHT22;11401;50.792;4.352;2023-04-24T11:55:27;17.50;54.40
22469;DHT22;11401;50.792;4.352;2023-04-24T11:57:56;17.40;54.40
22469;DHT22;11401;50.792;4.352;2023-04-24T12:00:26;17.30;54.00
22469;DHT22;11401;50.792;4.352;2023-04-24T12:03:08;17.10;53.60
22469;DHT22;11401;50.792;4.352;2023-04-24T12:05:36;16.90;52.50
22469;DHT22;11401;50.792;4.352;2023-04-24T12:08:03;16.80;55.20
22469;DHT22;11401;50.792;4.352;2023-04-24T12:10:32;16.90;55.20
22469;DHT22;11401;50.792;4.352;2023-04-24T12:12:59;17.00;55.20
22469;DHT22;11401;50.792;4.352;2023-04-24T12:15:27;17.20;56.50
22469;DHT22;11401;50.792;4.352;2023-04-24T12:17:56;17.30;56.30
22469;DHT22;11401;50.792;4.352;2023-04-24T12:20:32;17.40;55.10
22469;DHT22;11401;50.792;4.352;2023-04-24T12:23:00;17.50;56.40
22469;DHT22;11401;50.792;4.352;2023-04-24T12:25:30;17.30;52.40
22469;DHT22;11401;50.792;4.352;2023-04-24T12:30:33;17.30;55.20
22469;DHT22;11401;50.792;4.352;2023-04-24T12:33:00;17.40;54.50
22469;DHT22;11401;50.792;4.352;2023-04-24T12:35:28;17.40;54.60
22469;DHT22;11401;50.792;4.352;2023-04-24T12:37:55;17.50;55.60
22469;DHT22;11401;50.792;4.352;2023-04-24T12:40:31;17.40;53.10
22469;DHT22;11401;50.792;4.352;2023-04-24T12:42:58;17.50;56.20
22469;DHT22;11401;50.792;4.352;2023-04-24T12:45:25;17.50;54.80
22469;DHT22;11401;50.792;4.352;2023-04-24T12:47:54;17.60;56.30
22469;DHT22;11401;50.792;4.352;2023-04-24T12:50:21;17.80;58.00
22469;DHT22;11401;50.792;4.352;2023-04-24T12:52:48;17.90;57.80
22469;DHT22;11401;50.792;4.352;2023-04-24T12:55:15;18.00;57.50
22469;DHT22;11401;50.792;4.352;2023-04-24T12:57:42;18.00;55.00
22469;DHT22;11401;50.792;4.352;2023-04-24T13:00:09;17.90;53.60
22469;DHT22;11401;50.792;4.352;2023-04-24T13:02:37;17.80;53.90
22469;DHT22;11401;50.792;4.352;2023-04-24T13:05:05;17.80;54.10
22469;DHT22;11401;50.792;4.352;2023-04-24T13:07:33;17.80;54.20
22469;DHT22;11401;50.792;4.352;2023-04-24T13:10:00;17.80;53.10
22469;DHT22;11401;50.792;4.352;2023-04-24T13:12:27;17.90;54.80
22469;DHT22;11401;50.792;4.352;2023-04-24T13:14:54;17.90;54.40
22469;DHT22;11401;50.792;4.352;2023-04-24T13:17:21;17.90;53.00
22469;DHT22;11401;50.792;4.352;2023-04-24T13:19:49;17.80;51.60
22469;DHT22;11401;50.792;4.352;2023-04-24T13:22:18;17.90;53.50
22469;DHT22;11401;50.792;4.352;2023-04-24T13:24:45;17.90;53.50
22469;DHT22;11401;50.792;4.352;2023-04-24T13:27:12;17.90;52.10
22469;DHT22;11401;50.792;4.352;2023-04-24T13:29:40;17.80;51.90
22469;DHT22;11401;50.792;4.352;2023-04-24T13:32:08;17.80;53.60
22469;DHT22;11401;50.792;4.352;2023-04-24T13:34:35;17.70;51.50
22469;DHT22;11401;50.792;4.352;2023-04-24T13:37:04;17.60;52.60
22469;DHT22;11401;50.792;4.352;2023-04-24T13:39:31;17.60;54.10
22469;DHT22;11401;50.792;4.352;2023-04-24T13:41:58;17.80;54.40
22469;DHT22;11401;50.792;4.352;2023-04-24T13:44:27;17.90;54.30
22469;DHT22;11401;50.792;4.352;2023-04-24T13:46:55;17.90;53.80
22469;DHT22;11401;50.792;4.352;2023-04-24T13:49:24;17.90;53.20
22469;DHT22;11401;50.792;4.352;2023-04-24T13:51:52;17.90;53.00
22469;DHT22;11401;50.792;4.352;2023-04-24T13:54:20;17.90;53.30
22469;DHT22;11401;50.792;4.352;2023-04-24T13:56:47;17.90;52.70
22469;DHT22;11401;50.792;4.352;2023-04-24T13:59:14;17.80;52.90
22469;DHT22;11401;50.792;4.352;2023-04-24T14:01:41;17.80;53.10
22469;DHT22;11401;50.792;4.352;2023-04-24T14:04:08;17.90;53.40
22469;DHT22;11401;50.792;4.352;2023-04-24T14:06:35;17.80;51.40
22469;DHT22;11401;50.792;4.352;2023-04-24T14:09:02;17.90;53.30
22469;DHT22;11401;50.792;4.352;2023-04-24T14:11:29;18.00;51.70
22469;DHT22;11401;50.792;4.352;2023-04-24T14:13:56;17.90;52.20
22469;DHT22;11401;50.792;4.352;2023-04-24T14:16:23;17.90;52.60
22469;DHT22;11401;50.792;4.352;2023-04-24T14:18:51;17.90;50.50
22469;DHT22;11401;50.792;4.352;2023-04-24T14:21:18;17.90;53.30
22469;DHT22;11401;50.792;4.352;2023-04-24T14:23:45;17.90;51.40
22469;DHT22;11401;50.792;4.352;2023-04-24T14:26:12;18.00;52.30
22469;DHT22;11401;50.792;4.352;2023-04-24T14:28:40;18.00;51.00
22469;DHT22;11401;50.792;4.352;2023-04-24T14:31:07;17.90;50.40
22469;DHT22;11401;50.792;4.352;2023-04-24T14:33:34;17.90;50.80
22469;DHT22;11401;50.792;4.352;2023-04-24T14:36:02;17.90;51.60
22469;DHT22;11401;50.792;4.352;2023-04-24T14:38:29;17.90;50.20
22469;DHT22;11401;50.792;4.352;2023-04-24T14:40:58;17.80;50.00
22469;DHT22;11401;50.792;4.352;2023-04-24T14:43:34;17.80;52.60
22469;DHT22;11401;50.792;4.352;2023-04-24T14:46:03;17.90;53.20
22469;DHT22;11401;50.792;4.352;2023-04-24T14:48:31;17.90;52.10
22469;DHT22;11401;50.792;4.352;2023-04-24T14:50:58;17.90;49.30
22469;DHT22;11401;50.792;4.352;2023-04-24T14:53:25;17.80;50.00
22469;DHT22;11401;50.792;4.352;2023-04-24T14:55:53;17.90;53.10
22469;DHT22;11401;50.792;4.352;2023-04-24T14:58:20;18.00;51.20
22469;DHT22;11401;50.792;4.352;2023-04-24T15:00:47;18.00;51.10
22469;DHT22;11401;50.792;4.352;2023-04-24T15:03:17;17.90;49.90
22469;DHT22;11401;50.792;4.352;2023-04-24T15:05:45;17.90;49.90
22469;DHT22;11401;50.792;4.352;2023-04-24T15:08:12;17.80;49.70
22469;DHT22;11401;50.792;4.352;2023-04-24T15:10:39;17.90;50.70
22469;DHT22;11401;50.792;4.352;2023-04-24T15:13:06;17.80;49.40
22469;DHT22;11401;50.792;4.352;2023-04-24T15:15:33;17.80;51.00
22469;DHT22;11401;50.792;4.352;2023-04-24T15:18:00;17.70;49.10
22469;DHT22;11401;50.792;4.352;2023-04-24T15:20:28;17.70;50.50
22469;DHT22;11401;50.792;4.352;2023-04-24T15:22:55;17.60;49.80
22469;DHT22;11401;50.792;4.352;2023-04-24T15:25:22;17.70;50.50
22469;DHT22;11401;50.792;4.352;2023-04-24T15:27:49;17.70;50.30
22469;DHT22;11401;50.792;4.352;2023-04-24T15:30:16;17.80;51.20
22469;DHT22;11401;50.792;4.352;2023-04-24T15:32:43;17.80;50.40
22469;DHT22;11401;50.792;4.352;2023-04-24T15:35:10;17.80;51.40
22469;DHT22;11401;50.792;4.352;2023-04-24T15:37:38;17.90;50.80
22469;DHT22;11401;50.792;4.352;2023-04-24T15:40:06;17.90;51.20
22469;DHT22;11401;50.792;4.352;2023-04-24T15:42:34;17.80;50.10
22469;DHT22;11401;50.792;4.352;2023-04-24T15:45:02;17.90;50.60
22469;DHT22;11401;50.792;4.352;2023-04-24T15:47:31;17.90;50.50
22469;DHT22;11401;50.792;4.352;2023-04-24T15:49:58;17.80;51.00
22469;DHT22;11401;50.792;4.352;2023-04-24T15:52:25;17.70;49.00